createdAt,value
2023-04-19T06:22:54.538Z,98274.2
2023-04-19T06:28:29.352Z,98274.5
2023-04-19T06:34:25.081Z,98272.6
2023-04-19T06:40:00.406Z,98270.5
2023-04-19T06:45:36.508Z,98269.2
2023-04-19T06:51:12.533Z,98265.6
2023-04-19T06:56:57.438Z,98261.8
2023-04-19T07:02:36.994Z,98255.9
2023-04-19T07:08:16.951Z,98250.8
2023-04-19T07:13:56.127Z,98247.3
2023-04-19T07:19:35.581Z,98239.8
2023-04-19T07:25:15.950Z,98239
2023-04-19T07:30:54.017Z,98235.6
2023-04-19T07:36:53.438Z,98237.4
2023-04-19T07:42:28.896Z,98238.4
2023-04-19T07:48:06.208Z,98234.8
2023-04-19T07:53:42.881Z,98230.7
2023-04-19T07:59:19.369Z,98229.3
2023-04-19T08:04:56.131Z,98230.6
2023-04-19T08:10:34.684Z,98230.2
2023-04-19T08:23:31.970Z,98231
2023-04-19T08:29:33.029Z,98231.8
2023-04-19T08:35:08.376Z,98235.8
2023-04-19T08:40:45.602Z,98235.4
2023-04-19T08:46:22.827Z,98233.6
2023-04-19T08:53:25.872Z,98228.6
2023-04-19T08:59:21.374Z,98227.5
2023-04-19T09:05:00.247Z,98229.2
2023-04-19T09:10:39.761Z,98226.1
2023-04-19T09:16:17.562Z,98226.4
2023-04-19T09:21:57.150Z,98228.2
2023-04-19T09:27:32.723Z,98230.9
2023-04-19T09:33:09.571Z,98223.7
2023-04-19T09:38:46.314Z,98214.7
2023-04-19T09:51:14.758Z,98224.3
2023-04-19T09:56:52.179Z,98214.5
2023-04-19T10:02:36.849Z,98211.7
2023-04-19T10:08:24.371Z,98204.5
2023-04-19T10:14:00.733Z,98199.5
2023-04-19T10:19:36.558Z,98192.4
2023-04-19T10:25:11.922Z,98191.8
2023-04-19T10:30:58.548Z,98182.9
2023-04-19T10:36:48.179Z,98180
2023-04-19T10:42:23.866Z,98178.9
2023-04-19T10:48:01.107Z,98175.6
2023-04-19T10:53:39.810Z,98173.1
2023-04-19T10:59:17.079Z,98173
2023-04-19T11:04:53.813Z,98173.8
2023-04-19T11:10:30.330Z,98163.7
2023-04-19T11:16:07.568Z,98156.8
2023-04-19T11:21:45.554Z,98153
2023-04-19T11:27:21.544Z,98153.3
2023-04-19T11:33:00.365Z,98141.3
2023-04-19T11:39:00.927Z,98135.3
2023-04-19T11:44:36.008Z,98132.6
2023-04-19T11:50:12.766Z,98122.5
2023-04-19T11:55:49.051Z,98121.9
2023-04-19T12:01:24.869Z,98116.3
2023-04-19T12:07:02.257Z,98115
2023-04-19T12:12:37.950Z,98109.7
2023-04-19T12:18:13.733Z,98109.7
2023-04-19T12:23:50.145Z,98100.8
2023-04-19T12:29:27.007Z,98099.4
2023-04-19T12:35:03.175Z,98095.9
2023-04-19T12:40:39.487Z,98092.8
2023-04-19T12:46:15.361Z,98101
2023-04-19T12:51:51.334Z,98097.7
2023-04-19T12:57:32.517Z,98095.6
2023-04-19T13:03:08.561Z,98097.1
2023-04-19T13:08:49.686Z,98088.8
2023-04-19T13:14:26.864Z,98087.8
2023-04-19T13:20:28.199Z,98082.7
2023-04-19T13:26:02.223Z,98073.5
2023-04-19T13:31:38.858Z,98070.7
2023-04-19T13:37:14.708Z,98063.7
2023-04-19T13:42:51.307Z,98057.6
2023-04-19T13:48:27.788Z,98051.5
2023-04-19T13:54:04.700Z,98047.3
2023-04-19T13:59:40.970Z,98042.9
2023-04-19T14:05:18.713Z,98046.3
2023-04-19T14:10:54.498Z,98033.6
2023-04-19T14:16:30.307Z,98032.5
2023-04-19T14:22:06.959Z,98028.3
2023-04-19T14:27:43.647Z,98034.3
2023-04-19T14:33:19.753Z,98021
2023-04-19T14:38:55.983Z,98016
2023-04-19T14:44:35.159Z,97997.1
2023-04-19T14:50:12.271Z,97994.6
2023-04-19T14:55:47.760Z,97995.9
2023-04-19T15:01:24.751Z,97993.4
2023-04-19T15:07:00.214Z,97999.1
2023-04-19T15:12:36.206Z,97999.5
2023-04-19T15:18:12.364Z,97992.7
2023-04-19T15:23:49.223Z,97987
2023-04-19T15:29:24.757Z,97983.8
2023-04-19T15:34:59.219Z,97982.8
2023-04-19T15:40:37.019Z,97968.6
2023-04-19T15:46:12.529Z,97967
2023-04-19T15:51:48.626Z,97966.7
2023-04-19T15:57:23.586Z,97978.3
2023-04-19T16:02:59.979Z,97978
2023-04-19T16:08:37.296Z,97973.4
2023-04-19T16:14:13.187Z,97972.6
2023-04-19T16:19:48.684Z,97978.4
2023-04-19T16:25:24.003Z,97972
2023-04-19T16:30:59.591Z,97973.3
2023-04-19T16:36:35.098Z,97981.8
2023-04-19T16:42:12.950Z,97978.2
2023-04-19T16:47:50.700Z,97975.5
2023-04-19T16:53:27.353Z,97976.6
2023-04-19T16:59:03.097Z,97969
2023-04-19T17:04:39.677Z,97968.9
2023-04-19T17:10:16.820Z,97965.9
2023-04-19T17:15:52.900Z,97968.2
2023-04-19T17:21:50.241Z,97966.9
2023-04-19T17:27:23.601Z,97964.7
2023-04-19T17:32:59.059Z,97956.6
2023-04-19T17:38:35.276Z,97961.5
2023-04-19T17:44:11.546Z,97967.3
2023-04-19T17:49:48.693Z,97964.9
2023-04-19T17:55:24.038Z,97964.7
2023-04-19T18:01:00.077Z,97969.4
2023-04-19T18:06:35.549Z,97963
2023-04-19T18:12:10.376Z,97968.9
2023-04-19T18:18:20.479Z,97972.7
2023-04-19T18:24:28.443Z,97973.4
2023-04-19T18:30:10.505Z,97978.1
2023-04-19T18:35:49.977Z,97975
2023-04-19T18:41:25.022Z,97980.9
2023-04-19T18:47:00.905Z,97981.8
2023-04-19T18:52:37.040Z,97984.8
2023-04-19T18:58:13.072Z,97987.7
2023-04-19T19:04:55.783Z,97998.1
2023-04-19T19:11:55.816Z,98005.1
2023-04-19T19:17:33.286Z,98010.6
2023-04-19T19:23:08.873Z,98018.8
2023-04-19T19:29:00.852Z,98022.6
2023-04-19T19:35:08.462Z,98031.8
2023-04-19T19:48:14.860Z,98043.7
2023-04-19T19:54:17.894Z,98043
2023-04-19T20:00:27.937Z,98042.5
2023-04-19T20:08:01.469Z,98050.7
2023-04-19T20:13:47.092Z,98054.6
2023-04-19T20:19:29.328Z,98057.1
2023-04-19T20:25:04.888Z,98062.5
2023-04-19T20:30:43.405Z,98062
2023-04-19T20:36:25.799Z,98057
2023-04-19T20:42:04.471Z,98058.2
2023-04-19T20:47:45.323Z,98063.1
2023-04-19T20:53:21.503Z,98064.7
2023-04-19T20:59:03.480Z,98063.6
2023-04-19T21:04:51.677Z,98066.7
2023-04-19T21:10:50.792Z,98061.1
2023-04-19T21:16:26.812Z,98066
2023-04-19T21:22:03.948Z,98060.5
2023-04-19T21:27:43.353Z,98056.5
2023-04-19T21:33:18.945Z,98053.2
2023-04-19T21:38:54.651Z,98059
